This is the latest recevied weather packets stored in our database for station/object PA1CG-7. If no packets are shown the sender has not sent any weather packets the latest 1 day(s).
| Time | Temp. | Humidity | Pressure | Rain* | Wind** | Luminosity | Snow |
|---|---|---|---|---|---|---|---|
| 1778103736 | 11.11° C | 71% | 1013.1 hPa | 0 mm | - | - | - |
| 1778103136 | 11.11° C | 70% | 1013.1 hPa | 0 mm | - | - | - |
| 1778101336 | 11.67° C | 68% | 1012.8 hPa | 0 mm | - | - | - |
| 1778098936 | 12.78° C | 65% | 1012.5 hPa | 0 mm | - | - | - |
| 1778097736 | 12.78° C | 64% | 1012.4 hPa | 0 mm | - | - | - |
| 1778096536 | 13.33° C | 65% | 1012.1 hPa | 0 mm | - | - | - |
| 1778095936 | 13.33° C | 65% | 1012 hPa | 0 mm | - | - | - |
| 1778095336 | 13.33° C | 65% | 1011.8 hPa | 0 mm | - | - | - |
| 1778094136 | 13.89° C | 65% | 1011.6 hPa | 0 mm | - | - | - |
| 1778085737 | 13.89° C | 69% | 1010.3 hPa | 0 mm | - | - | - |
| 1778084537 | 13.89° C | 70% | 1010.2 hPa | 0 mm | - | - | - |
| 1778083937 | 13.89° C | 69% | 1010.2 hPa | 0 mm | - | - | - |
| 1778083337 | 14.44° C | 68% | 1010.2 hPa | 0 mm | - | - | - |
| 1778081537 | 14.44° C | 66% | 1010.1 hPa | 0 mm | - | - | - |
| 1778080937 | 14.44° C | 66% | 1010.1 hPa | 0 mm | - | - | - |
| 1778080337 | 15° C | 65% | 1010.1 hPa | 0 mm | - | - | - |
| 1778079137 | 15° C | 64% | 1010 hPa | 0 mm | - | - | - |
| 1778077937 | 15° C | 65% | 1010 hPa | 0 mm | - | - | - |
| 1778077337 | 15° C | 66% | 1010 hPa | 0 mm | - | - | - |
| 1778076737 | 15° C | 67% | 1010.1 hPa | 0 mm | - | - | - |
| 1778076137 | 16.11° C | 65% | 1010.1 hPa | 0 mm | - | - | - |
| 1778075537 | 16.11° C | 66% | 1010.1 hPa | 0 mm | - | - | - |
| 1778074337 | 15.56° C | 67% | 1010 hPa | 0 mm | - | - | - |
| 1778073137 | 15° C | 70% | 1010 hPa | 0 mm | - | - | - |
| 1778072537 | 14.44° C | 71% | 1009.9 hPa | 0 mm | - | - | - |
* Rain latest hour (hover to see other rain measurements)
** Current wind speed in m/s (hover to see current wind gust speed)